sensor_id;sensor_type;location;lat;lon;timestamp;temperature;humidity
47168;DHT22;32931;47.778;17.806;2023-05-19T00:01:36;13.30;99.90
47168;DHT22;32931;47.778;17.806;2023-05-19T00:04:03;13.30;99.90
47168;DHT22;32931;47.778;17.806;2023-05-19T00:06:31;13.30;99.90
47168;DHT22;32931;47.778;17.806;2023-05-19T00:09:03;13.30;99.90
47168;DHT22;32931;47.778;17.806;2023-05-19T00:11:30;13.40;99.90
47168;DHT22;32931;47.778;17.806;2023-05-19T00:13:58;13.30;99.90
47168;DHT22;32931;47.778;17.806;2023-05-19T00:16:25;13.20;99.90
47168;DHT22;32931;47.778;17.806;2023-05-19T00:18:52;13.20;99.90
47168;DHT22;32931;47.778;17.806;2023-05-19T00:21:19;13.20;99.90
47168;DHT22;32931;47.778;17.806;2023-05-19T00:23:45;13.20;99.90
47168;DHT22;32931;47.778;17.806;2023-05-19T00:26:11;13.10;99.90
47168;DHT22;32931;47.778;17.806;2023-05-19T00:28:38;13.00;99.90
47168;DHT22;32931;47.778;17.806;2023-05-19T00:31:04;12.90;99.90
47168;DHT22;32931;47.778;17.806;2023-05-19T00:33:31;12.90;99.90
47168;DHT22;32931;47.778;17.806;2023-05-19T00:35:59;12.80;99.90
47168;DHT22;32931;47.778;17.806;2023-05-19T00:38:32;12.80;99.90
47168;DHT22;32931;47.778;17.806;2023-05-19T00:41:00;12.80;99.90
47168;DHT22;32931;47.778;17.806;2023-05-19T00:43:26;12.70;99.90
47168;DHT22;32931;47.778;17.806;2023-05-19T00:45:53;12.70;99.90
47168;DHT22;32931;47.778;17.806;2023-05-19T00:48:19;12.70;99.90
47168;DHT22;32931;47.778;17.806;2023-05-19T00:50:45;12.70;99.90
47168;DHT22;32931;47.778;17.806;2023-05-19T00:53:13;12.70;99.90
47168;DHT22;32931;47.778;17.806;2023-05-19T00:55:41;12.70;99.90
47168;DHT22;32931;47.778;17.806;2023-05-19T00:58:09;12.70;99.90
47168;DHT22;32931;47.778;17.806;2023-05-19T01:00:37;12.60;99.90
47168;DHT22;32931;47.778;17.806;2023-05-19T01:03:05;12.70;99.90
47168;DHT22;32931;47.778;17.806;2023-05-19T01:05:41;12.70;99.90
47168;DHT22;32931;47.778;17.806;2023-05-19T01:08:12;12.70;99.90
47168;DHT22;32931;47.778;17.806;2023-05-19T01:10:38;12.70;99.90
47168;DHT22;32931;47.778;17.806;2023-05-19T01:13:05;12.70;99.90
47168;DHT22;32931;47.778;17.806;2023-05-19T01:18:37;12.70;99.90
47168;DHT22;32931;47.778;17.806;2023-05-19T01:29:28;12.70;99.90
47168;DHT22;32931;47.778;17.806;2023-05-19T01:31:59;12.70;99.90
47168;DHT22;32931;47.778;17.806;2023-05-19T01:34:26;12.70;99.90
47168;DHT22;32931;47.778;17.806;2023-05-19T01:36:54;12.60;99.90
47168;DHT22;32931;47.778;17.806;2023-05-19T01:39:21;12.60;99.90
47168;DHT22;32931;47.778;17.806;2023-05-19T01:41:48;12.60;99.90
47168;DHT22;32931;47.778;17.806;2023-05-19T01:44:15;12.50;99.90
47168;DHT22;32931;47.778;17.806;2023-05-19T01:46:42;12.50;99.90
47168;DHT22;32931;47.778;17.806;2023-05-19T01:49:08;12.50;99.90
47168;DHT22;32931;47.778;17.806;2023-05-19T01:51:34;12.60;99.90
47168;DHT22;32931;47.778;17.806;2023-05-19T01:54:01;12.60;99.90
47168;DHT22;32931;47.778;17.806;2023-05-19T01:57:35;12.70;99.90
47168;DHT22;32931;47.778;17.806;2023-05-19T01:59:44;12.70;99.90
47168;DHT22;32931;47.778;17.806;2023-05-19T02:08:48;12.70;99.90
47168;DHT22;32931;47.778;17.806;2023-05-19T02:11:26;12.70;99.90
47168;DHT22;32931;47.778;17.806;2023-05-19T02:13:55;12.80;99.90
47168;DHT22;32931;47.778;17.806;2023-05-19T02:16:27;12.80;99.90
47168;DHT22;32931;47.778;17.806;2023-05-19T02:18:54;12.70;99.90
47168;DHT22;32931;47.778;17.806;2023-05-19T02:21:21;12.80;99.90
47168;DHT22;32931;47.778;17.806;2023-05-19T02:23:47;12.80;99.90
47168;DHT22;32931;47.778;17.806;2023-05-19T02:26:13;12.80;99.90
47168;DHT22;32931;47.778;17.806;2023-05-19T02:28:39;12.80;99.90
47168;DHT22;32931;47.778;17.806;2023-05-19T02:31:06;12.80;99.90
47168;DHT22;32931;47.778;17.806;2023-05-19T02:33:34;12.80;99.90
47168;DHT22;32931;47.778;17.806;2023-05-19T02:36:01;12.90;99.90
47168;DHT22;32931;47.778;17.806;2023-05-19T02:38:27;12.80;99.90
47168;DHT22;32931;47.778;17.806;2023-05-19T02:40:54;12.70;99.90
47168;DHT22;32931;47.778;17.806;2023-05-19T02:43:20;12.70;99.90
47168;DHT22;32931;47.778;17.806;2023-05-19T02:45:46;12.60;99.90
47168;DHT22;32931;47.778;17.806;2023-05-19T02:48:12;12.60;99.90
47168;DHT22;32931;47.778;17.806;2023-05-19T02:50:38;12.60;99.90
47168;DHT22;32931;47.778;17.806;2023-05-19T02:53:04;12.70;99.90
47168;DHT22;32931;47.778;17.806;2023-05-19T02:55:30;12.60;99.90
47168;DHT22;32931;47.778;17.806;2023-05-19T02:57:57;12.60;99.90
47168;DHT22;32931;47.778;17.806;2023-05-19T03:00:23;12.60;99.90
47168;DHT22;32931;47.778;17.806;2023-05-19T03:02:49;12.60;99.90
47168;DHT22;32931;47.778;17.806;2023-05-19T03:05:17;12.60;99.90
47168;DHT22;32931;47.778;17.806;2023-05-19T03:07:44;12.60;99.90
47168;DHT22;32931;47.778;17.806;2023-05-19T03:10:11;12.60;99.90
47168;DHT22;32931;47.778;17.806;2023-05-19T03:12:37;12.60;99.90
47168;DHT22;32931;47.778;17.806;2023-05-19T03:15:04;12.60;99.90
47168;DHT22;32931;47.778;17.806;2023-05-19T03:17:30;12.60;99.90
47168;DHT22;32931;47.778;17.806;2023-05-19T03:19:59;12.50;99.90
47168;DHT22;32931;47.778;17.806;2023-05-19T03:22:26;12.50;99.90
47168;DHT22;32931;47.778;17.806;2023-05-19T03:24:52;12.50;99.90
47168;DHT22;32931;47.778;17.806;2023-05-19T03:27:19;12.50;99.90
47168;DHT22;32931;47.778;17.806;2023-05-19T03:29:45;12.50;99.90
47168;DHT22;32931;47.778;17.806;2023-05-19T03:32:11;12.50;99.90
47168;DHT22;32931;47.778;17.806;2023-05-19T03:34:37;12.50;99.90
47168;DHT22;32931;47.778;17.806;2023-05-19T03:37:03;12.50;99.90
47168;DHT22;32931;47.778;17.806;2023-05-19T03:39:30;12.60;99.90
47168;DHT22;32931;47.778;17.806;2023-05-19T03:41:56;12.60;99.90
47168;DHT22;32931;47.778;17.806;2023-05-19T03:44:22;12.60;99.90
47168;DHT22;32931;47.778;17.806;2023-05-19T03:46:48;12.60;99.90
47168;DHT22;32931;47.778;17.806;2023-05-19T03:49:14;12.60;99.90
47168;DHT22;32931;47.778;17.806;2023-05-19T03:51:40;12.60;99.90
47168;DHT22;32931;47.778;17.806;2023-05-19T03:54:07;12.50;99.90
47168;DHT22;32931;47.778;17.806;2023-05-19T03:56:38;12.60;99.90
47168;DHT22;32931;47.778;17.806;2023-05-19T03:59:04;12.60;99.90
47168;DHT22;32931;47.778;17.806;2023-05-19T04:01:35;12.60;99.90
47168;DHT22;32931;47.778;17.806;2023-05-19T04:04:02;12.60;99.90
47168;DHT22;32931;47.778;17.806;2023-05-19T04:06:28;12.70;99.90
47168;DHT22;32931;47.778;17.806;2023-05-19T04:08:54;12.60;99.90
47168;DHT22;32931;47.778;17.806;2023-05-19T04:11:20;12.70;99.90
47168;DHT22;32931;47.778;17.806;2023-05-19T04:13:46;12.80;99.90
47168;DHT22;32931;47.778;17.806;2023-05-19T04:16:13;12.80;99.90
47168;DHT22;32931;47.778;17.806;2023-05-19T04:18:39;12.80;99.90
47168;DHT22;32931;47.778;17.806;2023-05-19T04:21:05;12.80;99.90
47168;DHT22;32931;47.778;17.806;2023-05-19T04:23:33;12.80;99.90
47168;DHT22;32931;47.778;17.806;2023-05-19T04:25:59;12.80;99.90
47168;DHT22;32931;47.778;17.806;2023-05-19T04:28:26;12.80;99.90
47168;DHT22;32931;47.778;17.806;2023-05-19T04:30:53;12.70;99.90
47168;DHT22;32931;47.778;17.806;2023-05-19T04:33:19;12.70;99.90
47168;DHT22;32931;47.778;17.806;2023-05-19T04:35:46;12.70;99.90
47168;DHT22;32931;47.778;17.806;2023-05-19T04:38:12;12.70;99.90
47168;DHT22;32931;47.778;17.806;2023-05-19T04:40:38;12.70;99.90
47168;DHT22;32931;47.778;17.806;2023-05-19T04:43:08;12.70;99.90
47168;DHT22;32931;47.778;17.806;2023-05-19T04:45:34;12.70;99.90
47168;DHT22;32931;47.778;17.806;2023-05-19T04:48:02;12.70;99.90
47168;DHT22;32931;47.778;17.806;2023-05-19T04:50:28;12.70;99.90
47168;DHT22;32931;47.778;17.806;2023-05-19T04:52:57;12.70;99.90
47168;DHT22;32931;47.778;17.806;2023-05-19T04:55:24;12.70;99.90
47168;DHT22;32931;47.778;17.806;2023-05-19T04:57:50;12.70;99.90
47168;DHT22;32931;47.778;17.806;2023-05-19T05:00:16;12.80;99.90
47168;DHT22;32931;47.778;17.806;2023-05-19T05:02:43;12.70;99.90
47168;DHT22;32931;47.778;17.806;2023-05-19T05:05:10;12.80;99.90
47168;DHT22;32931;47.778;17.806;2023-05-19T05:07:36;12.80;99.90
47168;DHT22;32931;47.778;17.806;2023-05-19T05:10:02;12.70;99.90
47168;DHT22;32931;47.778;17.806;2023-05-19T05:12:29;12.70;99.90
47168;DHT22;32931;47.778;17.806;2023-05-19T05:14:56;12.80;99.90
47168;DHT22;32931;47.778;17.806;2023-05-19T05:17:22;12.90;99.90
47168;DHT22;32931;47.778;17.806;2023-05-19T05:19:50;12.90;99.90
47168;DHT22;32931;47.778;17.806;2023-05-19T05:22:17;12.90;99.90
47168;DHT22;32931;47.778;17.806;2023-05-19T05:24:43;12.90;99.90
47168;DHT22;32931;47.778;17.806;2023-05-19T05:27:09;12.90;99.90
47168;DHT22;32931;47.778;17.806;2023-05-19T05:29:36;13.00;99.90
47168;DHT22;32931;47.778;17.806;2023-05-19T05:32:02;13.00;99.90
47168;DHT22;32931;47.778;17.806;2023-05-19T05:34:28;13.10;99.90
47168;DHT22;32931;47.778;17.806;2023-05-19T05:36:55;13.10;99.90
47168;DHT22;32931;47.778;17.806;2023-05-19T05:39:21;13.20;99.90
47168;DHT22;32931;47.778;17.806;2023-05-19T05:41:47;13.20;99.90
47168;DHT22;32931;47.778;17.806;2023-05-19T05:44:13;13.20;99.90
47168;DHT22;32931;47.778;17.806;2023-05-19T05:46:39;13.20;99.90
47168;DHT22;32931;47.778;17.806;2023-05-19T05:49:06;13.30;99.90
47168;DHT22;32931;47.778;17.806;2023-05-19T05:51:32;13.20;99.90
47168;DHT22;32931;47.778;17.806;2023-05-19T05:53:59;13.20;99.90
47168;DHT22;32931;47.778;17.806;2023-05-19T05:56:26;13.30;99.90
47168;DHT22;32931;47.778;17.806;2023-05-19T05:58:53;13.30;99.90
47168;DHT22;32931;47.778;17.806;2023-05-19T06:01:19;13.20;99.90
47168;DHT22;32931;47.778;17.806;2023-05-19T06:03:45;13.20;99.90
47168;DHT22;32931;47.778;17.806;2023-05-19T06:06:12;13.20;99.90
47168;DHT22;32931;47.778;17.806;2023-05-19T06:08:38;13.30;99.90
47168;DHT22;32931;47.778;17.806;2023-05-19T06:11:04;13.40;99.90
47168;DHT22;32931;47.778;17.806;2023-05-19T06:13:37;13.40;99.90
47168;DHT22;32931;47.778;17.806;2023-05-19T06:16:04;13.40;99.90
47168;DHT22;32931;47.778;17.806;2023-05-19T06:18:31;13.40;99.90
47168;DHT22;32931;47.778;17.806;2023-05-19T06:20:57;13.50;99.90
47168;DHT22;32931;47.778;17.806;2023-05-19T06:23:23;13.50;99.90
47168;DHT22;32931;47.778;17.806;2023-05-19T06:25:51;13.60;99.90
47168;DHT22;32931;47.778;17.806;2023-05-19T06:28:17;13.60;99.90
47168;DHT22;32931;47.778;17.806;2023-05-19T06:30:44;13.60;99.90
47168;DHT22;32931;47.778;17.806;2023-05-19T06:33:10;13.60;99.90
47168;DHT22;32931;47.778;17.806;2023-05-19T06:35:37;13.60;99.90
47168;DHT22;32931;47.778;17.806;2023-05-19T06:38:03;13.70;99.90
47168;DHT22;32931;47.778;17.806;2023-05-19T06:40:29;13.80;99.90
47168;DHT22;32931;47.778;17.806;2023-05-19T06:42:55;13.80;99.90
47168;DHT22;32931;47.778;17.806;2023-05-19T06:45:22;13.80;99.90
47168;DHT22;32931;47.778;17.806;2023-05-19T06:47:48;13.90;99.90
47168;DHT22;32931;47.778;17.806;2023-05-19T06:50:14;13.80;99.90
47168;DHT22;32931;47.778;17.806;2023-05-19T06:52:41;13.90;99.90
47168;DHT22;32931;47.778;17.806;2023-05-19T06:55:07;13.90;99.90
47168;DHT22;32931;47.778;17.806;2023-05-19T06:57:33;13.90;99.90
47168;DHT22;32931;47.778;17.806;2023-05-19T07:00:01;14.00;99.90
47168;DHT22;32931;47.778;17.806;2023-05-19T07:02:27;14.00;99.90
47168;DHT22;32931;47.778;17.806;2023-05-19T07:04:53;14.00;99.90
47168;DHT22;32931;47.778;17.806;2023-05-19T07:07:19;14.00;99.90
47168;DHT22;32931;47.778;17.806;2023-05-19T07:09:45;14.00;99.90
47168;DHT22;32931;47.778;17.806;2023-05-19T07:12:11;14.10;99.90
47168;DHT22;32931;47.778;17.806;2023-05-19T07:14:38;14.20;99.90
47168;DHT22;32931;47.778;17.806;2023-05-19T07:17:04;14.20;99.90
47168;DHT22;32931;47.778;17.806;2023-05-19T07:19:30;14.20;99.90
47168;DHT22;32931;47.778;17.806;2023-05-19T07:21:56;14.30;99.90
47168;DHT22;32931;47.778;17.806;2023-05-19T07:24:24;14.30;99.90
47168;DHT22;32931;47.778;17.806;2023-05-19T07:26:52;14.30;99.90
47168;DHT22;32931;47.778;17.806;2023-05-19T07:29:18;14.40;99.90
47168;DHT22;32931;47.778;17.806;2023-05-19T07:31:44;14.40;99.90
47168;DHT22;32931;47.778;17.806;2023-05-19T07:34:11;14.50;99.90
47168;DHT22;32931;47.778;17.806;2023-05-19T07:36:37;14.40;99.90
47168;DHT22;32931;47.778;17.806;2023-05-19T07:39:03;14.50;99.90
47168;DHT22;32931;47.778;17.806;2023-05-19T07:41:29;14.60;99.90
47168;DHT22;32931;47.778;17.806;2023-05-19T07:43:55;14.60;99.90
47168;DHT22;32931;47.778;17.806;2023-05-19T07:46:22;14.60;99.90
47168;DHT22;32931;47.778;17.806;2023-05-19T07:48:48;14.70;99.90
47168;DHT22;32931;47.778;17.806;2023-05-19T07:51:14;14.80;99.90
47168;DHT22;32931;47.778;17.806;2023-05-19T07:53:41;14.90;99.90
47168;DHT22;32931;47.778;17.806;2023-05-19T07:56:07;15.00;99.90
47168;DHT22;32931;47.778;17.806;2023-05-19T07:58:33;15.10;99.90
47168;DHT22;32931;47.778;17.806;2023-05-19T08:00:59;15.10;99.90
47168;DHT22;32931;47.778;17.806;2023-05-19T08:03:26;15.20;99.90
47168;DHT22;32931;47.778;17.806;2023-05-19T08:05:52;15.30;99.90
47168;DHT22;32931;47.778;17.806;2023-05-19T08:08:18;15.40;99.90
47168;DHT22;32931;47.778;17.806;2023-05-19T08:10:45;15.60;99.90
47168;DHT22;32931;47.778;17.806;2023-05-19T08:13:11;15.70;99.90
47168;DHT22;32931;47.778;17.806;2023-05-19T08:15:37;15.80;99.90
47168;DHT22;32931;47.778;17.806;2023-05-19T08:18:03;15.90;99.90
47168;DHT22;32931;47.778;17.806;2023-05-19T08:20:30;16.00;99.90
47168;DHT22;32931;47.778;17.806;2023-05-19T08:22:56;16.10;99.90
47168;DHT22;32931;47.778;17.806;2023-05-19T08:25:22;16.10;99.90
47168;DHT22;32931;47.778;17.806;2023-05-19T08:27:48;16.20;99.90
47168;DHT22;32931;47.778;17.806;2023-05-19T08:30:15;16.20;99.90
47168;DHT22;32931;47.778;17.806;2023-05-19T08:32:41;16.20;99.90
47168;DHT22;32931;47.778;17.806;2023-05-19T08:35:08;16.30;99.90
47168;DHT22;32931;47.778;17.806;2023-05-19T08:37:35;16.40;99.90
47168;DHT22;32931;47.778;17.806;2023-05-19T08:40:03;16.40;99.90
47168;DHT22;32931;47.778;17.806;2023-05-19T08:42:33;16.50;99.90
47168;DHT22;32931;47.778;17.806;2023-05-19T08:45:01;16.60;99.90
47168;DHT22;32931;47.778;17.806;2023-05-19T08:47:27;16.80;99.90
47168;DHT22;32931;47.778;17.806;2023-05-19T08:50:04;16.90;99.90
47168;DHT22;32931;47.778;17.806;2023-05-19T08:52:52;17.00;99.90
47168;DHT22;32931;47.778;17.806;2023-05-19T08:55:44;17.10;99.90
47168;DHT22;32931;47.778;17.806;2023-05-19T08:58:11;17.20;99.90
47168;DHT22;32931;47.778;17.806;2023-05-19T09:00:38;17.10;99.90
47168;DHT22;32931;47.778;17.806;2023-05-19T09:03:05;17.20;99.90
47168;DHT22;32931;47.778;17.806;2023-05-19T09:05:32;17.30;99.90
47168;DHT22;32931;47.778;17.806;2023-05-19T09:07:58;17.40;99.90
47168;DHT22;32931;47.778;17.806;2023-05-19T09:10:27;17.40;99.90
47168;DHT22;32931;47.778;17.806;2023-05-19T09:12:54;17.60;99.90
47168;DHT22;32931;47.778;17.806;2023-05-19T09:15:22;17.70;99.90
47168;DHT22;32931;47.778;17.806;2023-05-19T09:17:50;17.90;99.90
47168;DHT22;32931;47.778;17.806;2023-05-19T09:20:16;17.90;99.90
47168;DHT22;32931;47.778;17.806;2023-05-19T09:22:43;17.90;99.90
47168;DHT22;32931;47.778;17.806;2023-05-19T09:25:21;18.00;99.90
47168;DHT22;32931;47.778;17.806;2023-05-19T09:27:47;18.10;99.90
47168;DHT22;32931;47.778;17.806;2023-05-19T09:30:17;18.00;99.90
47168;DHT22;32931;47.778;17.806;2023-05-19T09:32:44;18.00;99.90
47168;DHT22;32931;47.778;17.806;2023-05-19T09:35:12;18.00;99.90
47168;DHT22;32931;47.778;17.806;2023-05-19T09:37:39;18.00;99.90
47168;DHT22;32931;47.778;17.806;2023-05-19T09:40:12;18.00;99.90
47168;DHT22;32931;47.778;17.806;2023-05-19T09:42:39;17.90;99.90
47168;DHT22;32931;47.778;17.806;2023-05-19T09:45:06;17.90;99.90
47168;DHT22;32931;47.778;17.806;2023-05-19T09:47:38;18.00;99.90
47168;DHT22;32931;47.778;17.806;2023-05-19T09:50:06;18.10;99.90
47168;DHT22;32931;47.778;17.806;2023-05-19T09:52:43;18.10;99.90
47168;DHT22;32931;47.778;17.806;2023-05-19T09:55:11;18.20;99.90
47168;DHT22;32931;47.778;17.806;2023-05-19T09:57:39;18.20;99.90
47168;DHT22;32931;47.778;17.806;2023-05-19T10:00:06;18.20;99.90
47168;DHT22;32931;47.778;17.806;2023-05-19T10:02:46;18.20;99.90
47168;DHT22;32931;47.778;17.806;2023-05-19T10:05:17;18.30;99.90
47168;DHT22;32931;47.778;17.806;2023-05-19T10:07:51;18.40;99.90
47168;DHT22;32931;47.778;17.806;2023-05-19T10:10:20;18.50;99.90
47168;DHT22;32931;47.778;17.806;2023-05-19T10:12:48;18.50;99.90
47168;DHT22;32931;47.778;17.806;2023-05-19T10:15:16;18.60;99.90
47168;DHT22;32931;47.778;17.806;2023-05-19T10:17:43;18.70;99.90
47168;DHT22;32931;47.778;17.806;2023-05-19T10:20:12;18.80;99.90
47168;DHT22;32931;47.778;17.806;2023-05-19T10:22:43;18.90;99.90
47168;DHT22;32931;47.778;17.806;2023-05-19T10:25:11;19.00;99.90
47168;DHT22;32931;47.778;17.806;2023-05-19T10:27:42;19.00;99.90
47168;DHT22;32931;47.778;17.806;2023-05-19T10:30:19;19.10;99.90
47168;DHT22;32931;47.778;17.806;2023-05-19T10:32:46;19.10;99.90
47168;DHT22;32931;47.778;17.806;2023-05-19T10:35:41;19.10;99.90
47168;DHT22;32931;47.778;17.806;2023-05-19T10:41:23;19.20;99.90
47168;DHT22;32931;47.778;17.806;2023-05-19T10:46:32;19.20;99.90
47168;DHT22;32931;47.778;17.806;2023-05-19T10:48:59;19.30;99.90
47168;DHT22;32931;47.778;17.806;2023-05-19T10:51:31;19.30;99.90
47168;DHT22;32931;47.778;17.806;2023-05-19T10:54:01;19.40;99.90
47168;DHT22;32931;47.778;17.806;2023-05-19T10:56:30;19.40;99.90
47168;DHT22;32931;47.778;17.806;2023-05-19T10:58:59;19.50;99.90
47168;DHT22;32931;47.778;17.806;2023-05-19T11:01:35;19.40;99.90
47168;DHT22;32931;47.778;17.806;2023-05-19T11:04:07;19.50;99.90
47168;DHT22;32931;47.778;17.806;2023-05-19T11:06:37;19.60;99.90
47168;DHT22;32931;47.778;17.806;2023-05-19T11:09:13;19.60;99.90
47168;DHT22;32931;47.778;17.806;2023-05-19T11:11:52;19.70;99.90
47168;DHT22;32931;47.778;17.806;2023-05-19T11:14:22;19.80;99.90
47168;DHT22;32931;47.778;17.806;2023-05-19T11:16:55;19.90;99.90
47168;DHT22;32931;47.778;17.806;2023-05-19T11:19:33;20.00;99.90
47168;DHT22;32931;47.778;17.806;2023-05-19T11:22:09;20.10;99.90
47168;DHT22;32931;47.778;17.806;2023-05-19T11:24:43;20.10;99.90
47168;DHT22;32931;47.778;17.806;2023-05-19T11:27:17;20.10;99.90
47168;DHT22;32931;47.778;17.806;2023-05-19T11:29:44;20.20;99.90
47168;DHT22;32931;47.778;17.806;2023-05-19T11:32:11;20.20;99.90
47168;DHT22;32931;47.778;17.806;2023-05-19T11:34:39;20.40;99.90
47168;DHT22;32931;47.778;17.806;2023-05-19T11:37:05;20.50;99.90
47168;DHT22;32931;47.778;17.806;2023-05-19T11:39:32;20.70;99.90
47168;DHT22;32931;47.778;17.806;2023-05-19T11:41:58;20.90;99.90
47168;DHT22;32931;47.778;17.806;2023-05-19T11:44:24;21.00;99.90
47168;DHT22;32931;47.778;17.806;2023-05-19T11:46:51;21.10;99.90
47168;DHT22;32931;47.778;17.806;2023-05-19T11:49:17;21.20;99.90
47168;DHT22;32931;47.778;17.806;2023-05-19T11:51:44;21.20;99.90
47168;DHT22;32931;47.778;17.806;2023-05-19T11:54:11;21.30;99.90
47168;DHT22;32931;47.778;17.806;2023-05-19T11:56:41;21.30;99.90
47168;DHT22;32931;47.778;17.806;2023-05-19T11:59:08;21.30;99.90
47168;DHT22;32931;47.778;17.806;2023-05-19T12:01:35;21.30;99.90
47168;DHT22;32931;47.778;17.806;2023-05-19T12:04:01;21.30;99.90
47168;DHT22;32931;47.778;17.806;2023-05-19T12:06:28;21.40;99.90
47168;DHT22;32931;47.778;17.806;2023-05-19T12:08:54;21.50;99.90
47168;DHT22;32931;47.778;17.806;2023-05-19T12:11:22;21.60;99.90
47168;DHT22;32931;47.778;17.806;2023-05-19T12:13:49;21.70;99.90
47168;DHT22;32931;47.778;17.806;2023-05-19T12:16:19;21.80;99.90
47168;DHT22;32931;47.778;17.806;2023-05-19T12:18:46;21.90;99.90
47168;DHT22;32931;47.778;17.806;2023-05-19T12:21:12;22.00;99.90
47168;DHT22;32931;47.778;17.806;2023-05-19T12:23:38;22.00;99.90
47168;DHT22;32931;47.778;17.806;2023-05-19T12:26:06;22.30;99.90
47168;DHT22;32931;47.778;17.806;2023-05-19T12:28:33;22.50;99.90
47168;DHT22;32931;47.778;17.806;2023-05-19T12:31:01;22.70;99.90
47168;DHT22;32931;47.778;17.806;2023-05-19T12:33:27;22.80;99.90
47168;DHT22;32931;47.778;17.806;2023-05-19T12:35:53;23.00;99.90
47168;DHT22;32931;47.778;17.806;2023-05-19T12:38:20;23.00;99.90
47168;DHT22;32931;47.778;17.806;2023-05-19T12:40:46;23.10;99.90
47168;DHT22;32931;47.778;17.806;2023-05-19T12:43:20;23.20;99.90
47168;DHT22;32931;47.778;17.806;2023-05-19T12:45:47;23.40;99.90
47168;DHT22;32931;47.778;17.806;2023-05-19T12:48:14;23.80;99.90
47168;DHT22;32931;47.778;17.806;2023-05-19T12:50:41;24.10;99.90
47168;DHT22;32931;47.778;17.806;2023-05-19T12:53:12;24.40;99.90
47168;DHT22;32931;47.778;17.806;2023-05-19T12:55:42;24.70;99.90
47168;DHT22;32931;47.778;17.806;2023-05-19T12:58:09;25.10;99.90
47168;DHT22;32931;47.778;17.806;2023-05-19T13:00:45;25.40;99.90
47168;DHT22;32931;47.778;17.806;2023-05-19T13:03:17;25.50;99.90
47168;DHT22;32931;47.778;17.806;2023-05-19T13:05:45;25.50;99.90
47168;DHT22;32931;47.778;17.806;2023-05-19T13:08:14;25.50;99.90
47168;DHT22;32931;47.778;17.806;2023-05-19T13:10:42;25.60;99.90
47168;DHT22;32931;47.778;17.806;2023-05-19T13:13:09;25.70;99.90
47168;DHT22;32931;47.778;17.806;2023-05-19T13:15:41;25.70;99.90
47168;DHT22;32931;47.778;17.806;2023-05-19T13:18:10;25.70;98.80
47168;DHT22;32931;47.778;17.806;2023-05-19T13:20:37;25.50;99.90
47168;DHT22;32931;47.778;17.806;2023-05-19T13:23:04;25.40;98.90
47168;DHT22;32931;47.778;17.806;2023-05-19T13:25:32;25.40;99.50
47168;DHT22;32931;47.778;17.806;2023-05-19T13:28:01;25.30;98.70
47168;DHT22;32931;47.778;17.806;2023-05-19T13:30:31;25.30;98.90
47168;DHT22;32931;47.778;17.806;2023-05-19T13:32:57;25.40;98.20
47168;DHT22;32931;47.778;17.806;2023-05-19T13:35:25;25.70;98.90
47168;DHT22;32931;47.778;17.806;2023-05-19T13:37:51;26.20;98.10
47168;DHT22;32931;47.778;17.806;2023-05-19T13:40:17;26.40;97.10
47168;DHT22;32931;47.778;17.806;2023-05-19T13:42:44;26.90;97.80
47168;DHT22;32931;47.778;17.806;2023-05-19T13:45:10;27.10;97.50
47168;DHT22;32931;47.778;17.806;2023-05-19T13:47:37;27.20;96.80
47168;DHT22;32931;47.778;17.806;2023-05-19T13:50:04;27.30;96.20
47168;DHT22;32931;47.778;17.806;2023-05-19T13:52:30;27.40;95.20
47168;DHT22;32931;47.778;17.806;2023-05-19T13:54:56;27.30;94.90
47168;DHT22;32931;47.778;17.806;2023-05-19T13:57:23;27.20;94.30
47168;DHT22;32931;47.778;17.806;2023-05-19T13:59:50;27.00;94.40
47168;DHT22;32931;47.778;17.806;2023-05-19T14:02:16;26.80;94.80
47168;DHT22;32931;47.778;17.806;2023-05-19T14:04:43;26.60;95.00
47168;DHT22;32931;47.778;17.806;2023-05-19T14:07:09;26.60;95.10
47168;DHT22;32931;47.778;17.806;2023-05-19T14:09:35;26.60;95.10
47168;DHT22;32931;47.778;17.806;2023-05-19T14:12:02;26.70;94.70
47168;DHT22;32931;47.778;17.806;2023-05-19T14:14:28;26.60;94.40
47168;DHT22;32931;47.778;17.806;2023-05-19T14:16:54;26.70;94.50
47168;DHT22;32931;47.778;17.806;2023-05-19T14:19:21;26.70;94.40
47168;DHT22;32931;47.778;17.806;2023-05-19T14:21:49;26.80;94.40
47168;DHT22;32931;47.778;17.806;2023-05-19T14:24:15;27.00;94.50
47168;DHT22;32931;47.778;17.806;2023-05-19T14:26:41;27.20;94.40
47168;DHT22;32931;47.778;17.806;2023-05-19T14:29:07;27.40;94.00
47168;DHT22;32931;47.778;17.806;2023-05-19T14:31:34;27.50;93.60
47168;DHT22;32931;47.778;17.806;2023-05-19T14:34:00;27.70;93.60
47168;DHT22;32931;47.778;17.806;2023-05-19T14:36:26;27.70;92.90
47168;DHT22;32931;47.778;17.806;2023-05-19T14:38:52;27.70;92.30
47168;DHT22;32931;47.778;17.806;2023-05-19T14:41:18;27.80;91.90
47168;DHT22;32931;47.778;17.806;2023-05-19T14:43:44;27.90;91.50
47168;DHT22;32931;47.778;17.806;2023-05-19T14:46:11;28.00;91.70
47168;DHT22;32931;47.778;17.806;2023-05-19T14:48:37;27.90;91.00
47168;DHT22;32931;47.778;17.806;2023-05-19T14:51:03;28.00;91.40
47168;DHT22;32931;47.778;17.806;2023-05-19T14:53:29;28.00;91.60
47168;DHT22;32931;47.778;17.806;2023-05-19T14:55:56;27.90;91.20
47168;DHT22;32931;47.778;17.806;2023-05-19T14:58:22;28.10;91.50
47168;DHT22;32931;47.778;17.806;2023-05-19T15:00:48;28.30;91.80
47168;DHT22;32931;47.778;17.806;2023-05-19T15:03:14;28.30;90.90
47168;DHT22;32931;47.778;17.806;2023-05-19T15:05:41;28.50;90.60
47168;DHT22;32931;47.778;17.806;2023-05-19T15:08:07;28.50;89.00
47168;DHT22;32931;47.778;17.806;2023-05-19T15:10:33;28.60;88.20
47168;DHT22;32931;47.778;17.806;2023-05-19T15:12:59;28.70;88.10
47168;DHT22;32931;47.778;17.806;2023-05-19T15:15:26;28.80;89.00
47168;DHT22;32931;47.778;17.806;2023-05-19T15:17:53;28.90;86.60
47168;DHT22;32931;47.778;17.806;2023-05-19T15:20:19;29.00;86.30
47168;DHT22;32931;47.778;17.806;2023-05-19T15:22:45;29.10;84.80
47168;DHT22;32931;47.778;17.806;2023-05-19T15:25:11;29.20;83.50
47168;DHT22;32931;47.778;17.806;2023-05-19T15:27:37;29.30;84.20
47168;DHT22;32931;47.778;17.806;2023-05-19T15:30:04;29.30;83.60
47168;DHT22;32931;47.778;17.806;2023-05-19T15:32:31;29.30;84.30
47168;DHT22;32931;47.778;17.806;2023-05-19T15:34:57;29.30;83.50
47168;DHT22;32931;47.778;17.806;2023-05-19T15:37:23;29.20;83.20
47168;DHT22;32931;47.778;17.806;2023-05-19T15:39:49;29.10;84.30
47168;DHT22;32931;47.778;17.806;2023-05-19T15:42:15;29.10;83.90